sensor_id;sensor_type;location;lat;lon;timestamp;P1;durP1;ratioP1;P2;durP2;ratioP2
79015;SDS011;68420;44.714;37.756;2023-03-25T00:00:15;4.32;;;2.25;;
79015;SDS011;68420;44.714;37.756;2023-03-25T00:01:18;5.50;;;2.55;;
79015;SDS011;68420;44.714;37.756;2023-03-25T00:02:20;5.13;;;2.40;;
79015;SDS011;68420;44.714;37.756;2023-03-25T00:03:26;4.78;;;2.40;;
79015;SDS011;68420;44.714;37.756;2023-03-25T00:04:29;5.10;;;2.50;;
79015;SDS011;68420;44.714;37.756;2023-03-25T00:05:30;5.57;;;2.53;;
79015;SDS011;68420;44.714;37.756;2023-03-25T00:06:32;4.53;;;2.30;;
79015;SDS011;68420;44.714;37.756;2023-03-25T00:07:34;4.72;;;2.10;;
79015;SDS011;68420;44.714;37.756;2023-03-25T00:08:36;5.25;;;2.40;;
79015;SDS011;68420;44.714;37.756;2023-03-25T00:09:38;4.93;;;2.30;;
79015;SDS011;68420;44.714;37.756;2023-03-25T00:10:39;4.90;;;2.30;;
79015;SDS011;68420;44.714;37.756;2023-03-25T00:11:40;4.13;;;2.30;;
79015;SDS011;68420;44.714;37.756;2023-03-25T00:12:41;3.65;;;2.05;;
79015;SDS011;68420;44.714;37.756;2023-03-25T00:13:43;4.32;;;2.20;;
79015;SDS011;68420;44.714;37.756;2023-03-25T00:14:44;4.93;;;2.40;;
79015;SDS011;68420;44.714;37.756;2023-03-25T00:15:53;4.35;;;2.20;;
79015;SDS011;68420;44.714;37.756;2023-03-25T00:16:57;4.45;;;2.30;;
79015;SDS011;68420;44.714;37.756;2023-03-25T00:18:01;4.95;;;2.50;;
79015;SDS011;68420;44.714;37.756;2023-03-25T00:19:02;4.60;;;2.10;;
79015;SDS011;68420;44.714;37.756;2023-03-25T00:20:04;5.82;;;2.40;;
79015;SDS011;68420;44.714;37.756;2023-03-25T00:21:08;4.72;;;2.20;;
79015;SDS011;68420;44.714;37.756;2023-03-25T00:22:11;5.10;;;2.30;;
79015;SDS011;68420;44.714;37.756;2023-03-25T00:23:12;4.78;;;2.25;;
79015;SDS011;68420;44.714;37.756;2023-03-25T00:24:15;4.07;;;2.15;;
79015;SDS011;68420;44.714;37.756;2023-03-25T00:25:19;4.72;;;2.10;;
79015;SDS011;68420;44.714;37.756;2023-03-25T00:26:21;4.57;;;2.03;;
79015;SDS011;68420;44.714;37.756;2023-03-25T00:27:23;4.35;;;2.30;;
79015;SDS011;68420;44.714;37.756;2023-03-25T00:28:25;4.05;;;2.10;;
79015;SDS011;68420;44.714;37.756;2023-03-25T00:29:28;4.20;;;2.10;;
79015;SDS011;68420;44.714;37.756;2023-03-25T00:30:29;4.78;;;2.28;;
79015;SDS011;68420;44.714;37.756;2023-03-25T00:31:31;5.03;;;2.10;;
79015;SDS011;68420;44.714;37.756;2023-03-25T00:32:32;5.20;;;2.22;;
79015;SDS011;68420;44.714;37.756;2023-03-25T00:33:34;4.65;;;2.28;;
79015;SDS011;68420;44.714;37.756;2023-03-25T00:34:35;4.30;;;2.22;;
79015;SDS011;68420;44.714;37.756;2023-03-25T00:35:41;4.53;;;2.05;;
79015;SDS011;68420;44.714;37.756;2023-03-25T00:36:44;4.00;;;2.30;;
79015;SDS011;68420;44.714;37.756;2023-03-25T00:37:46;4.82;;;2.20;;
79015;SDS011;68420;44.714;37.756;2023-03-25T00:38:51;3.78;;;1.92;;
79015;SDS011;68420;44.714;37.756;2023-03-25T00:39:53;4.82;;;2.25;;
79015;SDS011;68420;44.714;37.756;2023-03-25T00:40:54;3.83;;;2.05;;
79015;SDS011;68420;44.714;37.756;2023-03-25T00:41:55;4.20;;;2.00;;
79015;SDS011;68420;44.714;37.756;2023-03-25T00:42:57;6.18;;;2.70;;
79015;SDS011;68420;44.714;37.756;2023-03-25T00:43:58;4.22;;;2.22;;
79015;SDS011;68420;44.714;37.756;2023-03-25T00:45:00;4.65;;;2.22;;
79015;SDS011;68420;44.714;37.756;2023-03-25T00:46:03;5.03;;;2.50;;
79015;SDS011;68420;44.714;37.756;2023-03-25T00:47:04;5.38;;;2.40;;
79015;SDS011;68420;44.714;37.756;2023-03-25T00:48:06;3.97;;;2.35;;
79015;SDS011;68420;44.714;37.756;2023-03-25T00:49:08;5.50;;;2.53;;
79015;SDS011;68420;44.714;37.756;2023-03-25T00:50:09;6.43;;;2.67;;
79015;SDS011;68420;44.714;37.756;2023-03-25T00:51:11;4.50;;;2.40;;
79015;SDS011;68420;44.714;37.756;2023-03-25T00:52:14;4.85;;;2.50;;
79015;SDS011;68420;44.714;37.756;2023-03-25T00:53:16;4.90;;;2.38;;
79015;SDS011;68420;44.714;37.756;2023-03-25T00:54:17;5.40;;;2.50;;
79015;SDS011;68420;44.714;37.756;2023-03-25T00:55:18;5.38;;;2.55;;
79015;SDS011;68420;44.714;37.756;2023-03-25T00:56:21;5.57;;;2.70;;
79015;SDS011;68420;44.714;37.756;2023-03-25T00:57:23;6.72;;;2.80;;
79015;SDS011;68420;44.714;37.756;2023-03-25T00:58:24;6.15;;;2.65;;
79015;SDS011;68420;44.714;37.756;2023-03-25T00:59:29;6.60;;;3.03;;
79015;SDS011;68420;44.714;37.756;2023-03-25T01:00:32;6.22;;;2.85;;
79015;SDS011;68420;44.714;37.756;2023-03-25T01:01:33;4.95;;;2.38;;
79015;SDS011;68420;44.714;37.756;2023-03-25T01:02:38;6.28;;;2.90;;
79015;SDS011;68420;44.714;37.756;2023-03-25T01:03:40;6.70;;;3.03;;
79015;SDS011;68420;44.714;37.756;2023-03-25T01:04:43;5.63;;;2.83;;
79015;SDS011;68420;44.714;37.756;2023-03-25T01:05:45;6.15;;;3.08;;
79015;SDS011;68420;44.714;37.756;2023-03-25T01:06:46;6.95;;;3.13;;
79015;SDS011;68420;44.714;37.756;2023-03-25T01:07:51;5.85;;;3.17;;
79015;SDS011;68420;44.714;37.756;2023-03-25T01:08:52;6.50;;;2.70;;
79015;SDS011;68420;44.714;37.756;2023-03-25T01:09:57;6.53;;;3.08;;
79015;SDS011;68420;44.714;37.756;2023-03-25T01:10:59;7.05;;;3.05;;
79015;SDS011;68420;44.714;37.756;2023-03-25T01:12:00;5.15;;;2.80;;
79015;SDS011;68420;44.714;37.756;2023-03-25T01:13:02;6.03;;;2.90;;
79015;SDS011;68420;44.714;37.756;2023-03-25T01:14:04;6.93;;;3.33;;
79015;SDS011;68420;44.714;37.756;2023-03-25T01:15:08;7.05;;;3.45;;
79015;SDS011;68420;44.714;37.756;2023-03-25T01:16:10;6.10;;;3.13;;
79015;SDS011;68420;44.714;37.756;2023-03-25T01:17:12;7.05;;;3.13;;
79015;SDS011;68420;44.714;37.756;2023-03-25T01:18:13;6.55;;;3.22;;
79015;SDS011;68420;44.714;37.756;2023-03-25T01:19:15;8.55;;;3.47;;
79015;SDS011;68420;44.714;37.756;2023-03-25T01:20:16;6.85;;;3.40;;
79015;SDS011;68420;44.714;37.756;2023-03-25T01:21:17;7.78;;;3.55;;
79015;SDS011;68420;44.714;37.756;2023-03-25T01:22:19;7.35;;;3.45;;
79015;SDS011;68420;44.714;37.756;2023-03-25T01:23:20;8.05;;;3.45;;
79015;SDS011;68420;44.714;37.756;2023-03-25T01:24:21;6.18;;;3.10;;
79015;SDS011;68420;44.714;37.756;2023-03-25T01:25:23;5.93;;;3.05;;
79015;SDS011;68420;44.714;37.756;2023-03-25T01:26:25;6.60;;;3.45;;
79015;SDS011;68420;44.714;37.756;2023-03-25T01:27:26;7.50;;;3.58;;
79015;SDS011;68420;44.714;37.756;2023-03-25T01:28:27;7.07;;;3.50;;
79015;SDS011;68420;44.714;37.756;2023-03-25T01:29:29;6.07;;;3.10;;
79015;SDS011;68420;44.714;37.756;2023-03-25T01:30:31;5.78;;;2.88;;
79015;SDS011;68420;44.714;37.756;2023-03-25T01:31:33;6.70;;;3.45;;
79015;SDS011;68420;44.714;37.756;2023-03-25T01:32:34;6.68;;;3.50;;
79015;SDS011;68420;44.714;37.756;2023-03-25T01:33:36;7.50;;;3.38;;
79015;SDS011;68420;44.714;37.756;2023-03-25T01:34:37;6.72;;;3.33;;
79015;SDS011;68420;44.714;37.756;2023-03-25T01:35:39;7.45;;;3.50;;
79015;SDS011;68420;44.714;37.756;2023-03-25T01:36:41;7.85;;;3.45;;
79015;SDS011;68420;44.714;37.756;2023-03-25T01:37:46;6.45;;;3.22;;
79015;SDS011;68420;44.714;37.756;2023-03-25T01:38:47;7.20;;;3.63;;
79015;SDS011;68420;44.714;37.756;2023-03-25T01:39:50;8.13;;;3.60;;
79015;SDS011;68420;44.714;37.756;2023-03-25T01:40:51;5.60;;;3.17;;
79015;SDS011;68420;44.714;37.756;2023-03-25T01:41:53;7.53;;;3.45;;
79015;SDS011;68420;44.714;37.756;2023-03-25T01:42:55;6.88;;;3.75;;
79015;SDS011;68420;44.714;37.756;2023-03-25T01:46:20;9.27;;;3.45;;
79015;SDS011;68420;44.714;37.756;2023-03-25T01:47:21;9.07;;;4.05;;
79015;SDS011;68420;44.714;37.756;2023-03-25T01:49:27;7.53;;;3.58;;
79015;SDS011;68420;44.714;37.756;2023-03-25T01:50:33;6.57;;;3.50;;
79015;SDS011;68420;44.714;37.756;2023-03-25T01:51:37;7.18;;;3.63;;
79015;SDS011;68420;44.714;37.756;2023-03-25T01:52:41;6.97;;;3.50;;
79015;SDS011;68420;44.714;37.756;2023-03-25T01:53:45;8.07;;;3.70;;
79015;SDS011;68420;44.714;37.756;2023-03-25T01:54:49;7.10;;;3.63;;
79015;SDS011;68420;44.714;37.756;2023-03-25T01:55:52;6.80;;;3.80;;
79015;SDS011;68420;44.714;37.756;2023-03-25T01:56:54;7.90;;;3.42;;
79015;SDS011;68420;44.714;37.756;2023-03-25T01:57:56;7.93;;;3.53;;
79015;SDS011;68420;44.714;37.756;2023-03-25T01:59:00;7.43;;;3.95;;
79015;SDS011;68420;44.714;37.756;2023-03-25T02:00:04;6.97;;;3.60;;
79015;SDS011;68420;44.714;37.756;2023-03-25T02:01:13;6.30;;;3.40;;
79015;SDS011;68420;44.714;37.756;2023-03-25T02:02:21;8.27;;;4.28;;
79015;SDS011;68420;44.714;37.756;2023-03-25T02:03:36;7.35;;;3.38;;
79015;SDS011;68420;44.714;37.756;2023-03-25T02:04:39;7.53;;;3.45;;
79015;SDS011;68420;44.714;37.756;2023-03-25T02:06:03;8.30;;;3.80;;
79015;SDS011;68420;44.714;37.756;2023-03-25T02:07:08;7.18;;;3.58;;
79015;SDS011;68420;44.714;37.756;2023-03-25T02:08:11;7.03;;;3.83;;
79015;SDS011;68420;44.714;37.756;2023-03-25T02:09:16;6.22;;;3.25;;
79015;SDS011;68420;44.714;37.756;2023-03-25T02:10:19;7.57;;;3.78;;
79015;SDS011;68420;44.714;37.756;2023-03-25T02:11:21;8.38;;;3.70;;
79015;SDS011;68420;44.714;37.756;2023-03-25T02:12:25;7.00;;;3.55;;
79015;SDS011;68420;44.714;37.756;2023-03-25T02:13:26;7.90;;;3.75;;
79015;SDS011;68420;44.714;37.756;2023-03-25T02:14:29;6.60;;;3.50;;
79015;SDS011;68420;44.714;37.756;2023-03-25T02:15:51;10.32;;;3.92;;
79015;SDS011;68420;44.714;37.756;2023-03-25T02:38:43;8.00;;;3.88;;
79015;SDS011;68420;44.714;37.756;2023-03-25T02:40:02;7.22;;;3.83;;
79015;SDS011;68420;44.714;37.756;2023-03-25T02:42:22;7.85;;;4.00;;
79015;SDS011;68420;44.714;37.756;2023-03-25T02:43:45;6.70;;;3.67;;
79015;SDS011;68420;44.714;37.756;2023-03-25T02:46:33;7.63;;;3.85;;
79015;SDS011;68420;44.714;37.756;2023-03-25T02:47:37;7.43;;;3.58;;
79015;SDS011;68420;44.714;37.756;2023-03-25T02:48:54;7.50;;;3.80;;
79015;SDS011;68420;44.714;37.756;2023-03-25T02:50:10;7.70;;;3.65;;
79015;SDS011;68420;44.714;37.756;2023-03-25T02:51:23;7.55;;;3.40;;
79015;SDS011;68420;44.714;37.756;2023-03-25T02:52:48;7.07;;;3.70;;
79015;SDS011;68420;44.714;37.756;2023-03-25T02:53:55;8.55;;;4.00;;
79015;SDS011;68420;44.714;37.756;2023-03-25T02:55:01;7.82;;;4.00;;
79015;SDS011;68420;44.714;37.756;2023-03-25T02:56:08;7.60;;;3.95;;
79015;SDS011;68420;44.714;37.756;2023-03-25T02:57:13;7.85;;;3.70;;
79015;SDS011;68420;44.714;37.756;2023-03-25T02:58:18;6.72;;;3.53;;
79015;SDS011;68420;44.714;37.756;2023-03-25T02:59:22;7.30;;;3.72;;
79015;SDS011;68420;44.714;37.756;2023-03-25T03:00:32;7.65;;;4.05;;
79015;SDS011;68420;44.714;37.756;2023-03-25T03:01:37;6.95;;;3.70;;
79015;SDS011;68420;44.714;37.756;2023-03-25T03:02:41;6.32;;;3.25;;
79015;SDS011;68420;44.714;37.756;2023-03-25T03:03:46;6.43;;;3.35;;
79015;SDS011;68420;44.714;37.756;2023-03-25T03:04:51;7.45;;;3.42;;
79015;SDS011;68420;44.714;37.756;2023-03-25T03:06:00;7.57;;;3.85;;
79015;SDS011;68420;44.714;37.756;2023-03-25T03:07:03;6.95;;;3.25;;
79015;SDS011;68420;44.714;37.756;2023-03-25T03:09:35;7.18;;;3.92;;
79015;SDS011;68420;44.714;37.756;2023-03-25T03:12:11;6.82;;;3.60;;
79015;SDS011;68420;44.714;37.756;2023-03-25T03:14:51;6.43;;;3.25;;
79015;SDS011;68420;44.714;37.756;2023-03-25T03:16:00;7.60;;;3.95;;
79015;SDS011;68420;44.714;37.756;2023-03-25T03:17:26;6.65;;;3.55;;
79015;SDS011;68420;44.714;37.756;2023-03-25T03:18:57;7.20;;;3.72;;
79015;SDS011;68420;44.714;37.756;2023-03-25T03:20:33;7.38;;;3.95;;
79015;SDS011;68420;44.714;37.756;2023-03-25T03:21:45;6.38;;;3.42;;
79015;SDS011;68420;44.714;37.756;2023-03-25T03:23:10;6.68;;;3.17;;
79015;SDS011;68420;44.714;37.756;2023-03-25T03:24:26;6.15;;;3.00;;
79015;SDS011;68420;44.714;37.756;2023-03-25T03:25:50;7.68;;;3.50;;
79015;SDS011;68420;44.714;37.756;2023-03-25T03:28:45;7.82;;;3.25;;
79015;SDS011;68420;44.714;37.756;2023-03-25T03:29:54;7.07;;;3.20;;
79015;SDS011;68420;44.714;37.756;2023-03-25T03:31:20;5.97;;;3.10;;
79015;SDS011;68420;44.714;37.756;2023-03-25T03:32:27;7.30;;;4.00;;
79015;SDS011;68420;44.714;37.756;2023-03-25T03:35:07;8.23;;;4.05;;
79015;SDS011;68420;44.714;37.756;2023-03-25T03:36:14;9.70;;;4.40;;
79015;SDS011;68420;44.714;37.756;2023-03-25T03:37:21;6.65;;;3.47;;
79015;SDS011;68420;44.714;37.756;2023-03-25T03:38:28;6.88;;;3.85;;
79015;SDS011;68420;44.714;37.756;2023-03-25T03:39:35;6.70;;;3.50;;
79015;SDS011;68420;44.714;37.756;2023-03-25T03:40:39;8.18;;;3.90;;
79015;SDS011;68420;44.714;37.756;2023-03-25T03:41:45;7.65;;;3.92;;
79015;SDS011;68420;44.714;37.756;2023-03-25T03:43:59;7.93;;;4.00;;
79015;SDS011;68420;44.714;37.756;2023-03-25T03:45:12;7.40;;;4.03;;
79015;SDS011;68420;44.714;37.756;2023-03-25T03:46:38;9.57;;;3.90;;
79015;SDS011;68420;44.714;37.756;2023-03-25T03:47:48;7.55;;;3.78;;
79015;SDS011;68420;44.714;37.756;2023-03-25T03:48:54;7.13;;;3.90;;
79015;SDS011;68420;44.714;37.756;2023-03-25T03:50:03;8.05;;;4.32;;
79015;SDS011;68420;44.714;37.756;2023-03-25T03:51:19;8.15;;;4.15;;
79015;SDS011;68420;44.714;37.756;2023-03-25T03:52:30;7.65;;;3.92;;
79015;SDS011;68420;44.714;37.756;2023-03-25T03:53:38;7.82;;;3.80;;
79015;SDS011;68420;44.714;37.756;2023-03-25T03:54:47;7.22;;;4.05;;
79015;SDS011;68420;44.714;37.756;2023-03-25T03:55:53;7.88;;;4.28;;
79015;SDS011;68420;44.714;37.756;2023-03-25T03:57:02;7.20;;;4.10;;
79015;SDS011;68420;44.714;37.756;2023-03-25T03:58:13;7.93;;;4.03;;
79015;SDS011;68420;44.714;37.756;2023-03-25T04:00:09;9.07;;;3.75;;
79015;SDS011;68420;44.714;37.756;2023-03-25T04:02:15;7.20;;;3.67;;
79015;SDS011;68420;44.714;37.756;2023-03-25T04:03:50;8.32;;;4.75;;
79015;SDS011;68420;44.714;37.756;2023-03-25T04:05:14;8.73;;;4.35;;
79015;SDS011;68420;44.714;37.756;2023-03-25T04:07:39;7.63;;;4.07;;
79015;SDS011;68420;44.714;37.756;2023-03-25T04:08:49;7.90;;;3.85;;
79015;SDS011;68420;44.714;37.756;2023-03-25T04:09:53;7.45;;;4.03;;
79015;SDS011;68420;44.714;37.756;2023-03-25T04:11:15;8.25;;;3.90;;
79015;SDS011;68420;44.714;37.756;2023-03-25T04:12:28;8.70;;;4.20;;
79015;SDS011;68420;44.714;37.756;2023-03-25T04:13:35;8.65;;;4.07;;
79015;SDS011;68420;44.714;37.756;2023-03-25T04:14:39;7.30;;;3.90;;
79015;SDS011;68420;44.714;37.756;2023-03-25T04:15:41;9.55;;;4.05;;
79015;SDS011;68420;44.714;37.756;2023-03-25T04:16:43;7.60;;;3.92;;
79015;SDS011;68420;44.714;37.756;2023-03-25T04:17:45;8.27;;;3.97;;
79015;SDS011;68420;44.714;37.756;2023-03-25T04:18:51;8.77;;;4.43;;
79015;SDS011;68420;44.714;37.756;2023-03-25T04:19:53;10.18;;;3.83;;
79015;SDS011;68420;44.714;37.756;2023-03-25T04:20:54;7.82;;;4.15;;
79015;SDS011;68420;44.714;37.756;2023-03-25T04:21:55;8.40;;;4.05;;
79015;SDS011;68420;44.714;37.756;2023-03-25T04:22:57;7.78;;;4.03;;
79015;SDS011;68420;44.714;37.756;2023-03-25T04:23:58;8.20;;;3.90;;
79015;SDS011;68420;44.714;37.756;2023-03-25T04:25:01;8.20;;;4.22;;
79015;SDS011;68420;44.714;37.756;2023-03-25T04:26:02;8.88;;;3.95;;
79015;SDS011;68420;44.714;37.756;2023-03-25T04:27:03;7.65;;;4.28;;
79015;SDS011;68420;44.714;37.756;2023-03-25T04:28:05;9.70;;;4.38;;
79015;SDS011;68420;44.714;37.756;2023-03-25T04:29:06;7.18;;;3.80;;
79015;SDS011;68420;44.714;37.756;2023-03-25T04:30:09;8.00;;;4.25;;
79015;SDS011;68420;44.714;37.756;2023-03-25T04:31:14;6.60;;;3.75;;
79015;SDS011;68420;44.714;37.756;2023-03-25T04:32:17;8.85;;;4.35;;
79015;SDS011;68420;44.714;37.756;2023-03-25T04:33:18;8.85;;;4.45;;
79015;SDS011;68420;44.714;37.756;2023-03-25T04:34:20;7.63;;;4.25;;
79015;SDS011;68420;44.714;37.756;2023-03-25T04:35:28;7.80;;;4.00;;
79015;SDS011;68420;44.714;37.756;2023-03-25T04:36:32;9.00;;;4.30;;
79015;SDS011;68420;44.714;37.756;2023-03-25T04:37:37;7.80;;;4.32;;
79015;SDS011;68420;44.714;37.756;2023-03-25T04:38:38;8.40;;;3.88;;
79015;SDS011;68420;44.714;37.756;2023-03-25T04:39:40;8.60;;;3.63;;
79015;SDS011;68420;44.714;37.756;2023-03-25T04:40:41;9.38;;;4.25;;
79015;SDS011;68420;44.714;37.756;2023-03-25T04:41:46;7.78;;;3.45;;
79015;SDS011;68420;44.714;37.756;2023-03-25T04:42:47;7.85;;;3.50;;
79015;SDS011;68420;44.714;37.756;2023-03-25T04:43:49;6.32;;;3.53;;
79015;SDS011;68420;44.714;37.756;2023-03-25T04:44:50;6.15;;;3.20;;
79015;SDS011;68420;44.714;37.756;2023-03-25T04:45:52;6.63;;;3.47;;
79015;SDS011;68420;44.714;37.756;2023-03-25T04:46:54;7.18;;;3.30;;
79015;SDS011;68420;44.714;37.756;2023-03-25T04:47:55;6.97;;;3.40;;
79015;SDS011;68420;44.714;37.756;2023-03-25T04:48:57;8.07;;;3.60;;
79015;SDS011;68420;44.714;37.756;2023-03-25T04:50:00;7.75;;;3.17;;
79015;SDS011;68420;44.714;37.756;2023-03-25T04:51:01;7.85;;;3.50;;
79015;SDS011;68420;44.714;37.756;2023-03-25T04:52:03;6.30;;;3.22;;
79015;SDS011;68420;44.714;37.756;2023-03-25T04:53:04;8.38;;;3.40;;
79015;SDS011;68420;44.714;37.756;2023-03-25T04:54:06;6.20;;;3.05;;
79015;SDS011;68420;44.714;37.756;2023-03-25T04:55:07;8.38;;;3.72;;
79015;SDS011;68420;44.714;37.756;2023-03-25T04:56:19;7.07;;;3.33;;
79015;SDS011;68420;44.714;37.756;2023-03-25T04:57:21;9.20;;;3.78;;
79015;SDS011;68420;44.714;37.756;2023-03-25T04:58:23;7.53;;;3.60;;
79015;SDS011;68420;44.714;37.756;2023-03-25T04:59:24;5.43;;;2.90;;
79015;SDS011;68420;44.714;37.756;2023-03-25T05:00:26;8.55;;;3.50;;
79015;SDS011;68420;44.714;37.756;2023-03-25T05:01:28;6.85;;;3.60;;
79015;SDS011;68420;44.714;37.756;2023-03-25T05:02:33;7.50;;;3.53;;
79015;SDS011;68420;44.714;37.756;2023-03-25T05:03:34;6.45;;;3.00;;
79015;SDS011;68420;44.714;37.756;2023-03-25T05:04:39;8.82;;;3.28;;
79015;SDS011;68420;44.714;37.756;2023-03-25T05:05:45;8.75;;;3.42;;
79015;SDS011;68420;44.714;37.756;2023-03-25T05:06:47;6.95;;;3.20;;
79015;SDS011;68420;44.714;37.756;2023-03-25T05:07:51;7.35;;;3.65;;
79015;SDS011;68420;44.714;37.756;2023-03-25T05:08:54;8.00;;;3.53;;
79015;SDS011;68420;44.714;37.756;2023-03-25T05:09:55;9.45;;;3.17;;
79015;SDS011;68420;44.714;37.756;2023-03-25T05:10:57;7.95;;;3.45;;
79015;SDS011;68420;44.714;37.756;2023-03-25T05:11:58;6.63;;;2.90;;
79015;SDS011;68420;44.714;37.756;2023-03-25T05:13:00;7.03;;;3.40;;
79015;SDS011;68420;44.714;37.756;2023-03-25T05:14:04;7.85;;;3.58;;
79015;SDS011;68420;44.714;37.756;2023-03-25T05:15:07;7.60;;;3.70;;
79015;SDS011;68420;44.714;37.756;2023-03-25T05:16:10;7.07;;;3.40;;
79015;SDS011;68420;44.714;37.756;2023-03-25T05:17:11;8.00;;;3.35;;
79015;SDS011;68420;44.714;37.756;2023-03-25T05:18:13;6.93;;;3.45;;
79015;SDS011;68420;44.714;37.756;2023-03-25T05:19:15;6.10;;;3.20;;
79015;SDS011;68420;44.714;37.756;2023-03-25T05:20:18;6.95;;;3.40;;
79015;SDS011;68420;44.714;37.756;2023-03-25T05:21:22;7.57;;;3.50;;
79015;SDS011;68420;44.714;37.756;2023-03-25T05:22:23;8.18;;;3.50;;
79015;SDS011;68420;44.714;37.756;2023-03-25T05:23:25;7.60;;;4.22;;
79015;SDS011;68420;44.714;37.756;2023-03-25T05:24:26;6.78;;;3.35;;
79015;SDS011;68420;44.714;37.756;2023-03-25T05:25:29;7.82;;;3.53;;
79015;SDS011;68420;44.714;37.756;2023-03-25T05:26:35;7.13;;;3.55;;
79015;SDS011;68420;44.714;37.756;2023-03-25T05:27:40;6.22;;;3.45;;
79015;SDS011;68420;44.714;37.756;2023-03-25T05:28:41;6.68;;;3.10;;
79015;SDS011;68420;44.714;37.756;2023-03-25T05:29:43;7.75;;;3.60;;
79015;SDS011;68420;44.714;37.756;2023-03-25T05:30:44;8.82;;;4.10;;
79015;SDS011;68420;44.714;37.756;2023-03-25T05:31:47;6.60;;;3.70;;
79015;SDS011;68420;44.714;37.756;2023-03-25T05:32:48;7.40;;;3.42;;
79015;SDS011;68420;44.714;37.756;2023-03-25T05:33:50;12.02;;;3.80;;
79015;SDS011;68420;44.714;37.756;2023-03-25T05:34:52;6.95;;;3.42;;
79015;SDS011;68420;44.714;37.756;2023-03-25T05:35:53;9.93;;;3.53;;
79015;SDS011;68420;44.714;37.756;2023-03-25T05:36:54;8.68;;;3.72;;
79015;SDS011;68420;44.714;37.756;2023-03-25T05:37:55;9.07;;;3.97;;
79015;SDS011;68420;44.714;37.756;2023-03-25T05:38:57;8.13;;;3.58;;
79015;SDS011;68420;44.714;37.756;2023-03-25T05:39:58;7.55;;;3.47;;
79015;SDS011;68420;44.714;37.756;2023-03-25T05:41:00;7.88;;;3.90;;
79015;SDS011;68420;44.714;37.756;2023-03-25T05:42:01;10.68;;;4.03;;
79015;SDS011;68420;44.714;37.756;2023-03-25T05:43:03;12.73;;;4.03;;
79015;SDS011;68420;44.714;37.756;2023-03-25T05:44:06;9.35;;;4.07;;
79015;SDS011;68420;44.714;37.756;2023-03-25T05:45:09;9.40;;;3.88;;
79015;SDS011;68420;44.714;37.756;2023-03-25T05:46:11;8.13;;;3.70;;
79015;SDS011;68420;44.714;37.756;2023-03-25T05:47:12;9.05;;;3.90;;
79015;SDS011;68420;44.714;37.756;2023-03-25T05:48:13;9.93;;;4.13;;
79015;SDS011;68420;44.714;37.756;2023-03-25T05:49:14;7.50;;;3.63;;
79015;SDS011;68420;44.714;37.756;2023-03-25T05:50:22;10.05;;;4.00;;
79015;SDS011;68420;44.714;37.756;2023-03-25T05:51:31;7.45;;;4.05;;
79015;SDS011;68420;44.714;37.756;2023-03-25T05:52:37;11.45;;;3.90;;
79015;SDS011;68420;44.714;37.756;2023-03-25T05:53:41;7.47;;;3.40;;
79015;SDS011;68420;44.714;37.756;2023-03-25T05:54:44;8.48;;;3.88;;
79015;SDS011;68420;44.714;37.756;2023-03-25T05:55:46;8.77;;;3.85;;
79015;SDS011;68420;44.714;37.756;2023-03-25T05:56:50;10.32;;;3.70;;
79015;SDS011;68420;44.714;37.756;2023-03-25T05:57:51;10.30;;;4.18;;
79015;SDS011;68420;44.714;37.756;2023-03-25T05:58:53;10.23;;;3.80;;
79015;SDS011;68420;44.714;37.756;2023-03-25T05:59:56;9.15;;;4.32;;
79015;SDS011;68420;44.714;37.756;2023-03-25T06:00:57;8.18;;;3.80;;
79015;SDS011;68420;44.714;37.756;2023-03-25T06:02:03;8.88;;;3.70;;
79015;SDS011;68420;44.714;37.756;2023-03-25T06:03:07;9.63;;;4.03;;
79015;SDS011;68420;44.714;37.756;2023-03-25T06:04:08;7.75;;;3.72;;
79015;SDS011;68420;44.714;37.756;2023-03-25T06:05:12;10.13;;;4.13;;
79015;SDS011;68420;44.714;37.756;2023-03-25T06:06:14;7.53;;;3.90;;
79015;SDS011;68420;44.714;37.756;2023-03-25T06:07:18;9.50;;;4.10;;
79015;SDS011;68420;44.714;37.756;2023-03-25T06:08:19;7.68;;;3.67;;
79015;SDS011;68420;44.714;37.756;2023-03-25T06:09:25;8.07;;;3.65;;
79015;SDS011;68420;44.714;37.756;2023-03-25T06:10:30;7.47;;;4.18;;
79015;SDS011;68420;44.714;37.756;2023-03-25T06:11:33;8.82;;;3.90;;
79015;SDS011;68420;44.714;37.756;2023-03-25T06:12:38;8.57;;;3.80;;
79015;SDS011;68420;44.714;37.756;2023-03-25T06:13:40;7.40;;;3.88;;
79015;SDS011;68420;44.714;37.756;2023-03-25T06:14:42;8.65;;;3.80;;
79015;SDS011;68420;44.714;37.756;2023-03-25T06:15:48;9.23;;;3.58;;
79015;SDS011;68420;44.714;37.756;2023-03-25T06:16:55;13.23;;;3.78;;
79015;SDS011;68420;44.714;37.756;2023-03-25T06:17:56;10.43;;;3.75;;
79015;SDS011;68420;44.714;37.756;2023-03-25T06:18:58;9.10;;;4.00;;
79015;SDS011;68420;44.714;37.756;2023-03-25T06:20:00;8.13;;;4.03;;
79015;SDS011;68420;44.714;37.756;2023-03-25T06:21:06;7.60;;;3.70;;
79015;SDS011;68420;44.714;37.756;2023-03-25T06:22:11;8.63;;;3.92;;
79015;SDS011;68420;44.714;37.756;2023-03-25T06:23:12;7.50;;;4.05;;
79015;SDS011;68420;44.714;37.756;2023-03-25T06:24:13;7.70;;;3.80;;
79015;SDS011;68420;44.714;37.756;2023-03-25T06:25:16;7.18;;;3.80;;
79015;SDS011;68420;44.714;37.756;2023-03-25T06:26:20;8.70;;;4.35;;
79015;SDS011;68420;44.714;37.756;2023-03-25T06:27:23;11.07;;;3.72;;
79015;SDS011;68420;44.714;37.756;2023-03-25T06:28:24;8.98;;;3.70;;
79015;SDS011;68420;44.714;37.756;2023-03-25T06:29:25;6.88;;;3.72;;
79015;SDS011;68420;44.714;37.756;2023-03-25T06:30:27;7.72;;;3.97;;
79015;SDS011;68420;44.714;37.756;2023-03-25T06:31:28;7.70;;;3.65;;
79015;SDS011;68420;44.714;37.756;2023-03-25T06:32:32;7.40;;;3.80;;
79015;SDS011;68420;44.714;37.756;2023-03-25T06:33:34;7.30;;;3.78;;
79015;SDS011;68420;44.714;37.756;2023-03-25T06:34:36;8.60;;;3.63;;
79015;SDS011;68420;44.714;37.756;2023-03-25T06:35:39;8.05;;;3.80;;
79015;SDS011;68420;44.714;37.756;2023-03-25T06:36:43;6.95;;;3.60;;
79015;SDS011;68420;44.714;37.756;2023-03-25T06:37:45;6.53;;;3.70;;
79015;SDS011;68420;44.714;37.756;2023-03-25T06:38:52;8.32;;;3.88;;
79015;SDS011;68420;44.714;37.756;2023-03-25T06:39:55;6.78;;;3.83;;
79015;SDS011;68420;44.714;37.756;2023-03-25T06:40:57;7.65;;;3.30;;
79015;SDS011;68420;44.714;37.756;2023-03-25T06:41:59;8.80;;;4.07;;
79015;SDS011;68420;44.714;37.756;2023-03-25T06:43:08;7.22;;;3.50;;
79015;SDS011;68420;44.714;37.756;2023-03-25T06:44:10;7.55;;;3.30;;
79015;SDS011;68420;44.714;37.756;2023-03-25T06:45:26;6.88;;;3.40;;
79015;SDS011;68420;44.714;37.756;2023-03-25T06:46:59;7.38;;;3.47;;
79015;SDS011;68420;44.714;37.756;2023-03-25T06:48:09;7.13;;;3.13;;
79015;SDS011;68420;44.714;37.756;2023-03-25T06:49:10;7.82;;;3.47;;
79015;SDS011;68420;44.714;37.756;2023-03-25T06:50:11;8.13;;;3.97;;
79015;SDS011;68420;44.714;37.756;2023-03-25T06:51:13;10.30;;;3.67;;
79015;SDS011;68420;44.714;37.756;2023-03-25T06:52:14;7.38;;;3.28;;
79015;SDS011;68420;44.714;37.756;2023-03-25T06:53:16;8.18;;;3.20;;
79015;SDS011;68420;44.714;37.756;2023-03-25T06:54:17;8.55;;;3.70;;
79015;SDS011;68420;44.714;37.756;2023-03-25T06:55:18;8.48;;;3.50;;
79015;SDS011;68420;44.714;37.756;2023-03-25T06:56:20;9.23;;;3.80;;
79015;SDS011;68420;44.714;37.756;2023-03-25T06:57:21;8.82;;;3.47;;
79015;SDS011;68420;44.714;37.756;2023-03-25T06:58:22;7.57;;;3.60;;
79015;SDS011;68420;44.714;37.756;2023-03-25T06:59:24;9.05;;;3.42;;
79015;SDS011;68420;44.714;37.756;2023-03-25T07:00:25;6.85;;;3.10;;
79015;SDS011;68420;44.714;37.756;2023-03-25T07:01:28;8.98;;;3.67;;
79015;SDS011;68420;44.714;37.756;2023-03-25T07:02:29;10.45;;;3.63;;